createdAt,value
2018-05-04T00:00:03.369Z,61.60
2018-05-04T00:02:32.659Z,61.02
2018-05-04T00:05:01.463Z,61.05
2018-05-04T00:07:30.088Z,59.21
2018-05-04T00:09:58.713Z,60.71
2018-05-04T00:12:27.336Z,58.68
2018-05-04T00:14:58.379Z,60.58
2018-05-04T00:17:29.906Z,58.48
2018-05-04T00:19:58.545Z,59.82
2018-05-04T00:22:27.199Z,60.32
2018-05-04T00:24:56.269Z,60.21
2018-05-04T00:27:25.306Z,60.39
2018-05-04T00:29:54.365Z,60.53
2018-05-04T00:32:23.172Z,60.59
2018-05-04T00:34:52.252Z,60.59
2018-05-04T00:37:21.328Z,60.26
2018-05-04T00:39:50.179Z,60.65
2018-05-04T00:42:19.171Z,60.54
2018-05-04T00:44:48.572Z,60.57
2018-05-04T00:47:17.603Z,60.64
2018-05-04T00:49:46.627Z,60.61
2018-05-04T00:52:15.707Z,60.39
2018-05-04T00:54:44.807Z,60.24
2018-05-04T00:57:13.543Z,59.95
2018-05-04T00:59:42.541Z,60.02
2018-05-04T01:02:11.765Z,59.99
2018-05-04T01:04:40.753Z,60.07
2018-05-04T01:07:11.099Z,57.99
2018-05-04T01:09:40.144Z,59.18
2018-05-04T01:12:09.150Z,59.84
2018-05-04T01:14:38.128Z,59.28
2018-05-04T01:17:07.180Z,59.79
2018-05-04T01:19:36.906Z,59.86
2018-05-04T01:22:06.215Z,59.42
2018-05-04T01:24:35.309Z,59.46
2018-05-04T01:27:04.571Z,59.82
2018-05-04T01:29:33.510Z,59.66
2018-05-04T01:32:03.071Z,60.50
2018-05-04T01:34:32.337Z,60.71
2018-05-04T01:37:00.992Z,60.90
2018-05-04T01:39:29.904Z,60.86
2018-05-04T01:41:59.057Z,61.16
2018-05-04T01:44:28.047Z,60.98
2018-05-04T01:46:56.780Z,60.78
2018-05-04T01:49:25.649Z,60.95
2018-05-04T01:51:54.563Z,60.50
2018-05-04T01:54:23.681Z,60.47
2018-05-04T01:56:52.803Z,58.86
2018-05-04T01:59:21.615Z,59.82
2018-05-04T02:01:50.505Z,59.93
2018-05-04T02:04:19.027Z,59.71
2018-05-04T02:06:47.688Z,59.47
2018-05-04T02:09:16.294Z,59.42
2018-05-04T02:11:44.940Z,59.52
2018-05-04T02:14:13.555Z,59.68
2018-05-04T02:16:42.208Z,59.84
2018-05-04T02:19:10.823Z,59.85
2018-05-04T02:21:39.479Z,60.02
2018-05-04T02:24:08.083Z,60.30
2018-05-04T02:26:36.739Z,60.37
2018-05-04T02:29:05.366Z,60.52
2018-05-04T02:31:34.006Z,60.51
2018-05-04T02:34:02.621Z,60.51
2018-05-04T02:36:31.252Z,60.44
2018-05-04T02:38:59.857Z,60.74
2018-05-04T02:41:28.502Z,60.81
2018-05-04T02:43:57.641Z,61.10
2018-05-04T02:46:29.814Z,61.40
2018-05-04T02:48:58.794Z,61.44
2018-05-04T02:51:27.424Z,61.61
2018-05-04T02:53:56.584Z,62.14
2018-05-04T02:56:25.266Z,59.71
2018-05-04T02:58:53.879Z,61.21
2018-05-04T03:01:22.542Z,61.60
2018-05-04T03:03:51.143Z,62.03
2018-05-04T03:06:19.766Z,62.05
2018-05-04T03:08:48.413Z,59.93
2018-05-04T03:11:17.932Z,61.63
2018-05-04T03:13:47.047Z,62.36
2018-05-04T03:16:15.664Z,62.70
2018-05-04T03:18:44.352Z,62.74
2018-05-04T03:21:12.993Z,62.71
2018-05-04T03:23:41.634Z,62.50
2018-05-04T03:26:10.262Z,62.72
2018-05-04T03:28:39.171Z,63.50
2018-05-04T03:31:08.113Z,61.21
2018-05-04T03:33:37.234Z,62.99
2018-05-04T03:36:06.258Z,63.14
2018-05-04T03:38:35.426Z,63.09
2018-05-04T03:41:04.217Z,63.07
2018-05-04T03:43:33.333Z,62.83
2018-05-04T03:46:02.477Z,63.01
2018-05-04T03:48:31.398Z,62.84
2018-05-04T03:51:00.263Z,62.50
2018-05-04T03:53:29.147Z,62.69
2018-05-04T03:55:58.255Z,62.68
2018-05-04T03:59:04.014Z,62.77
2018-05-04T04:02:09.553Z,62.80
2018-05-04T04:04:40.181Z,63.03
2018-05-04T04:09:59.228Z,63.13
2018-05-04T04:12:28.471Z,63.11
2018-05-04T04:14:57.059Z,63.53
2018-05-04T04:17:26.525Z,63.32
2018-05-04T04:19:55.369Z,63.99
2018-05-04T04:22:24.113Z,64.33
2018-05-04T04:24:52.778Z,63.85
2018-05-04T04:27:22.460Z,62.07
2018-05-04T04:29:56.265Z,63.92
2018-05-04T04:32:26.870Z,64.84
2018-05-04T04:34:56.234Z,64.74
2018-05-04T04:37:25.030Z,64.68
2018-05-04T04:39:54.082Z,65.32
2018-05-04T04:42:23.183Z,65.48
2018-05-04T04:44:52.340Z,62.79
2018-05-04T04:47:21.810Z,64.35
2018-05-04T04:49:50.913Z,64.63
2018-05-04T04:52:21.348Z,64.79
2018-05-04T04:54:52.117Z,64.89
2018-05-04T05:00:15.380Z,65.02
2018-05-04T05:02:44.583Z,64.83
2018-05-04T05:05:15.120Z,64.87
2018-05-04T05:07:46.409Z,65.33
2018-05-04T05:10:15.583Z,65.19
2018-05-04T05:12:48.548Z,65.48
2018-05-04T05:26:36.942Z,64.12
2018-05-04T05:31:56.816Z,65.03
2018-05-04T05:45:46.640Z,62.55
2018-05-04T05:48:28.966Z,63.18
2018-05-04T05:53:48.738Z,58.71
2018-05-04T06:18:38.686Z,59.11
2018-05-04T06:24:10.733Z,59.69
2018-05-04T06:26:40.143Z,59.69
2018-05-04T06:57:01.721Z,54.44
2018-05-04T07:08:00.600Z,53.80
2018-05-04T07:16:28.981Z,48.43
2018-05-04T07:18:59.202Z,48.61
2018-05-04T07:21:30.210Z,49.48
2018-05-04T07:23:59.249Z,47.16
2018-05-04T07:26:27.857Z,45.60
2018-05-04T07:29:04.128Z,45.08
2018-05-04T07:31:32.751Z,45.16
2018-05-04T07:34:03.645Z,44.84
2018-05-04T07:39:19.925Z,44.27
2018-05-04T07:41:51.034Z,39.79
2018-05-04T07:44:27.285Z,41.68
2018-05-04T07:46:59.960Z,37.12
2018-05-04T08:06:38.432Z,40.50
2018-05-04T08:09:08.527Z,39.86
2018-05-04T08:14:29.652Z,40.44
2018-05-04T08:17:11.984Z,39.72
2018-05-04T08:19:41.123Z,39.41
2018-05-04T08:22:20.124Z,39.96
2018-05-04T08:24:54.308Z,40.00
2018-05-04T08:27:23.997Z,39.15
2018-05-04T08:29:53.671Z,39.36
2018-05-04T08:40:59.038Z,32.27
2018-05-04T08:49:03.434Z,32.16
2018-05-04T08:51:47.658Z,34.63
2018-05-04T08:57:11.712Z,35.82
2018-05-04T09:02:40.391Z,34.95
2018-05-04T09:08:00.806Z,36.28
2018-05-04T09:16:08.624Z,35.91
2018-05-04T09:18:38.822Z,36.03
2018-05-04T09:21:09.680Z,35.92
2018-05-04T09:23:38.623Z,35.71
2018-05-04T09:26:14.944Z,34.94
2018-05-04T09:28:45.784Z,35.09
2018-05-04T09:31:14.378Z,36.42
2018-05-04T09:33:43.085Z,35.05
2018-05-04T09:36:14.382Z,35.15
2018-05-04T09:38:50.982Z,34.63
2018-05-04T09:41:19.728Z,35.18
2018-05-04T09:43:52.539Z,34.88
2018-05-04T09:46:21.741Z,34.61
2018-05-04T09:48:58.617Z,34.34
2018-05-04T09:51:31.689Z,33.34
2018-05-04T09:54:04.104Z,34.54
2018-05-04T09:56:36.857Z,34.80
2018-05-04T10:01:57.247Z,32.47
2018-05-04T10:04:28.172Z,33.22
2018-05-04T10:09:44.433Z,33.54
2018-05-04T10:12:17.032Z,33.59
2018-05-04T10:17:51.716Z,33.80
2018-05-04T10:20:29.520Z,33.47
2018-05-04T10:34:14.491Z,32.93
2018-05-04T10:45:05.337Z,32.62
2018-05-04T10:47:36.937Z,30.83
2018-05-04T10:55:49.172Z,31.61
2018-05-04T10:58:20.621Z,31.62
2018-05-04T11:00:52.343Z,31.50
2018-05-04T11:03:21.370Z,32.68
2018-05-04T11:05:50.472Z,31.66
2018-05-04T11:08:20.076Z,31.57
2018-05-04T11:10:57.261Z,31.54
2018-05-04T11:13:28.404Z,30.96
2018-05-04T11:15:58.772Z,31.78
2018-05-04T11:18:30.727Z,31.44
2018-05-04T11:23:49.231Z,27.22
2018-05-04T11:26:18.256Z,29.48
2018-05-04T11:28:47.514Z,29.81
2018-05-04T11:31:18.288Z,30.87
2018-05-04T11:33:46.920Z,30.38
2018-05-04T11:36:15.563Z,28.02
2018-05-04T11:38:52.434Z,28.81
2018-05-04T11:41:24.301Z,30.11
2018-05-04T11:43:53.914Z,29.79
2018-05-04T11:46:22.520Z,29.61
2018-05-04T11:48:52.421Z,29.87
2018-05-04T11:51:22.347Z,29.65
2018-05-04T11:53:51.294Z,30.05
2018-05-04T11:56:22.641Z,29.44
2018-05-04T11:58:51.436Z,29.86
2018-05-04T12:01:21.921Z,30.42
2018-05-04T12:03:52.203Z,29.55
2018-05-04T12:06:22.115Z,30.41
2018-05-04T12:08:51.585Z,30.71
2018-05-04T12:11:28.052Z,29.49
2018-05-04T12:13:57.646Z,29.90
2018-05-04T12:16:26.822Z,30.36
2018-05-04T12:18:58.858Z,29.23
2018-05-04T12:21:27.703Z,28.84
2018-05-04T12:23:57.552Z,29.77
2018-05-04T12:26:26.936Z,29.47
2018-05-04T12:28:56.268Z,29.25
2018-05-04T12:31:25.719Z,29.23
2018-05-04T12:33:54.994Z,28.70
2018-05-04T12:36:24.907Z,28.91
2018-05-04T12:38:56.783Z,28.38
2018-05-04T12:41:25.518Z,29.04
2018-05-04T12:43:57.724Z,29.52
2018-05-04T12:46:26.978Z,29.67
2018-05-04T12:48:56.329Z,30.13
2018-05-04T12:51:25.428Z,29.60
2018-05-04T12:53:54.456Z,29.43
2018-05-04T12:56:23.234Z,29.08
2018-05-04T12:58:52.822Z,29.99
2018-05-04T13:01:23.372Z,29.14
2018-05-04T13:03:52.688Z,25.84
2018-05-04T13:06:21.475Z,28.30
2018-05-04T13:08:50.591Z,28.47
2018-05-04T13:11:19.015Z,28.41
2018-05-04T13:13:47.660Z,28.25
2018-05-04T13:16:16.677Z,25.54
2018-05-04T13:18:45.293Z,27.56
2018-05-04T13:21:13.899Z,27.95
2018-05-04T13:23:42.555Z,28.78
2018-05-04T13:26:12.461Z,28.21
2018-05-04T13:28:41.128Z,28.37
2018-05-04T13:31:09.754Z,25.78
2018-05-04T13:33:38.413Z,28.03
2018-05-04T13:36:07.014Z,28.18
2018-05-04T13:38:35.714Z,27.94
2018-05-04T13:41:04.272Z,28.36
2018-05-04T13:43:32.922Z,28.44
2018-05-04T13:46:01.541Z,26.18
2018-05-04T13:48:30.180Z,27.02
2018-05-04T13:50:58.845Z,24.90
2018-05-04T13:53:27.485Z,27.22
2018-05-04T13:55:56.129Z,27.86
2018-05-04T13:58:24.729Z,26.42
2018-05-04T14:00:53.363Z,27.49
2018-05-04T14:03:28.088Z,26.73
2018-05-04T14:06:00.377Z,26.80
2018-05-04T14:08:41.667Z,27.09
2018-05-04T14:11:13.644Z,27.72
2018-05-04T14:13:45.016Z,27.31
2018-05-04T14:19:01.209Z,27.80
2018-05-04T14:21:30.318Z,26.76
2018-05-04T14:23:58.963Z,27.17
2018-05-04T14:26:27.619Z,27.47
2018-05-04T14:28:56.254Z,26.73
2018-05-04T14:31:25.916Z,27.03
2018-05-04T14:33:55.227Z,26.24
2018-05-04T14:36:24.285Z,24.75
2018-05-04T14:38:53.036Z,25.91
2018-05-04T14:41:29.457Z,26.95
2018-05-04T14:44:00.183Z,26.49
2018-05-04T14:46:36.570Z,27.04
2018-05-04T14:49:05.300Z,27.95
2018-05-04T14:51:34.096Z,26.66
2018-05-04T14:54:03.355Z,27.53
2018-05-04T14:56:32.238Z,26.93
2018-05-04T14:59:01.831Z,26.90
2018-05-04T15:01:31.023Z,26.65
2018-05-04T15:04:01.586Z,26.11
2018-05-04T15:06:30.243Z,25.72
2018-05-04T15:08:59.350Z,24.41
2018-05-04T15:11:28.290Z,24.24
2018-05-04T15:13:57.305Z,23.27
2018-05-04T15:16:26.307Z,22.89
2018-05-04T15:18:55.324Z,23.86
2018-05-04T15:21:24.180Z,23.16
2018-05-04T15:23:54.398Z,20.28
2018-05-04T15:26:27.134Z,21.88
2018-05-04T15:28:56.756Z,22.96
2018-05-04T15:31:25.681Z,23.66
2018-05-04T15:33:54.501Z,22.59
2018-05-04T15:36:26.721Z,22.11
2018-05-04T15:38:55.944Z,23.30
2018-05-04T15:41:24.810Z,23.70
2018-05-04T15:43:53.771Z,24.89
2018-05-04T15:46:22.545Z,25.29
2018-05-04T15:49:16.625Z,24.22
2018-05-04T15:52:03.506Z,23.99
2018-05-04T15:54:32.212Z,20.87
2018-05-04T15:57:03.444Z,21.97
2018-05-04T15:59:34.087Z,23.37
2018-05-04T16:02:02.794Z,23.16
2018-05-04T16:04:31.693Z,19.79
2018-05-04T16:07:00.607Z,21.01
2018-05-04T16:09:29.590Z,21.63
2018-05-04T16:11:58.386Z,21.74
2018-05-04T16:14:29.822Z,21.57
2018-05-04T16:17:01.100Z,21.76
2018-05-04T16:19:29.871Z,22.58
2018-05-04T16:22:02.499Z,22.78
2018-05-04T16:24:31.560Z,22.71
2018-05-04T16:27:00.260Z,22.66
2018-05-04T16:29:28.882Z,22.83
2018-05-04T16:31:58.306Z,22.99
2018-05-04T16:34:27.175Z,23.62
2018-05-04T16:36:56.036Z,23.86
2018-05-04T16:39:24.833Z,22.96
2018-05-04T16:41:53.807Z,23.56
2018-05-04T16:44:30.190Z,23.72
2018-05-04T16:47:16.875Z,24.17
2018-05-04T16:49:45.524Z,23.68
2018-05-04T16:52:14.189Z,23.47
2018-05-04T16:54:45.313Z,23.02
2018-05-04T16:57:17.847Z,22.28
2018-05-04T16:59:47.286Z,22.38
2018-05-04T17:02:17.183Z,21.84
2018-05-04T17:04:49.743Z,22.34
2018-05-04T17:07:18.570Z,22.76
2018-05-04T17:12:39.356Z,22.03
2018-05-04T17:15:08.366Z,22.53
2018-05-04T17:17:43.136Z,22.73
2018-05-04T17:20:17.001Z,22.57
2018-05-04T17:22:47.845Z,22.98
2018-05-04T17:25:17.504Z,23.08
2018-05-04T17:27:46.411Z,23.23
2018-05-04T17:30:17.505Z,23.43
2018-05-04T17:32:46.485Z,23.56
2018-05-04T17:35:15.438Z,23.98
2018-05-04T17:37:44.334Z,25.64
2018-05-04T17:40:17.742Z,26.55
2018-05-04T17:42:46.779Z,27.06
2018-05-04T17:45:16.649Z,27.52
2018-05-04T17:47:45.734Z,28.36
2018-05-04T17:50:15.452Z,29.13
2018-05-04T17:52:46.484Z,29.96
2018-05-04T17:55:17.012Z,31.09
2018-05-04T17:57:45.988Z,31.60
2018-05-04T18:00:16.680Z,32.19
2018-05-04T18:02:45.371Z,33.06
2018-05-04T18:05:14.124Z,34.63
2018-05-04T18:07:42.837Z,36.99
2018-05-04T18:10:11.555Z,38.22
2018-05-04T18:12:40.456Z,38.22
2018-05-04T18:15:09.142Z,38.18
2018-05-04T18:17:38.190Z,38.29
2018-05-04T18:20:07.464Z,38.03
2018-05-04T18:22:52.461Z,38.12
2018-05-04T18:25:22.003Z,38.84
2018-05-04T18:28:00.225Z,39.44
2018-05-04T18:33:18.092Z,40.67
2018-05-04T18:41:22.846Z,41.79
2018-05-04T18:43:51.656Z,42.63
2018-05-04T18:46:21.821Z,42.53
2018-05-04T18:48:52.571Z,42.56
2018-05-04T18:51:22.537Z,43.16
2018-05-04T18:53:51.437Z,43.88
2018-05-04T18:56:21.510Z,44.64
2018-05-04T18:58:50.537Z,44.52
2018-05-04T19:01:28.995Z,43.66
2018-05-04T19:03:57.839Z,44.93
2018-05-04T19:06:26.667Z,45.67
2018-05-04T19:08:56.471Z,45.23
2018-05-04T19:11:27.525Z,45.25
2018-05-04T19:13:56.163Z,45.58
2018-05-04T19:16:25.960Z,46.07
2018-05-04T19:18:54.614Z,46.07
2018-05-04T19:21:23.462Z,46.12
2018-05-04T19:23:52.183Z,45.07
2018-05-04T19:26:21.818Z,46.48
2018-05-04T19:28:50.508Z,46.95
2018-05-04T19:31:19.766Z,44.80
2018-05-04T19:33:50.065Z,45.85
2018-05-04T19:36:18.703Z,43.91
2018-05-04T19:38:51.919Z,45.34
2018-05-04T19:41:20.560Z,45.74
2018-05-04T19:43:49.216Z,45.62
2018-05-04T19:46:19.827Z,45.61
2018-05-04T19:48:48.473Z,45.73
2018-05-04T19:51:34.857Z,45.82
2018-05-04T19:54:03.569Z,46.30
2018-05-04T19:56:33.099Z,46.09
2018-05-04T19:59:05.663Z,44.45
2018-05-04T20:01:34.388Z,45.61
2018-05-04T20:04:05.147Z,45.98
2018-05-04T20:06:33.741Z,45.73
2018-05-04T20:09:06.657Z,45.87
2018-05-04T20:11:35.448Z,45.55
2018-05-04T20:14:04.073Z,45.26
2018-05-04T20:16:32.897Z,43.55
2018-05-04T20:19:01.627Z,44.79
2018-05-04T20:21:30.143Z,43.23
2018-05-04T20:23:59.378Z,44.41
2018-05-04T20:26:28.512Z,44.34
2018-05-04T20:28:57.615Z,44.35
2018-05-04T20:31:26.474Z,42.58
2018-05-04T20:33:55.659Z,43.77
2018-05-04T20:36:41.209Z,44.16
2018-05-04T20:39:10.800Z,44.16
2018-05-04T20:41:39.829Z,44.23
2018-05-04T20:44:08.574Z,42.95
2018-05-04T20:46:37.479Z,44.43
2018-05-04T20:49:06.794Z,44.70
2018-05-04T20:51:35.841Z,44.84
2018-05-04T20:54:04.701Z,44.96
2018-05-04T20:56:33.342Z,45.09
2018-05-04T20:59:13.089Z,43.53
2018-05-04T21:01:54.933Z,44.85
2018-05-04T21:04:23.583Z,45.26
2018-05-04T21:06:52.781Z,45.44
2018-05-04T21:09:31.503Z,45.71
2018-05-04T21:12:09.995Z,46.00
2018-05-04T21:14:39.893Z,45.96
2018-05-04T21:17:27.422Z,46.04
2018-05-04T21:19:58.849Z,46.23
2018-05-04T21:25:15.000Z,46.68
2018-05-04T21:27:43.676Z,46.80
2018-05-04T21:30:12.308Z,46.66
2018-05-04T21:35:31.052Z,47.21
2018-05-04T21:38:00.723Z,45.68
2018-05-04T21:40:33.185Z,45.40
2018-05-04T21:43:01.848Z,47.35
2018-05-04T21:54:01.090Z,47.73
2018-05-04T21:59:19.568Z,48.54
2018-05-04T22:02:06.806Z,47.70
2018-05-04T22:04:54.520Z,49.55
2018-05-04T22:07:40.441Z,50.67
2018-05-04T22:10:11.137Z,51.92
2018-05-04T22:15:44.869Z,52.86
2018-05-04T22:35:01.213Z,53.69
2018-05-04T22:40:19.407Z,52.49
2018-05-04T22:42:48.373Z,54.82
2018-05-04T22:45:17.059Z,55.65
2018-05-04T22:47:48.903Z,56.32
2018-05-04T23:04:24.750Z,58.75
